Time;durP1;ratioP1;P1;durP2;ratioP2;P2;SDS_P1;SDS_P2;PMS_P1;PMS_P2;Temp;Humidity;BMP_temperature;BMP_pressure;BME280_temperature;BME280_humidity;BME280_pressure;Samples;Min_cycle;Max_cycle;Signal;HPM_P1;HPM_P2
2023/12/02 00:00:47;;;;;;;25.23;12.20;;;-0.60;99.90;;;;;;9663100;23;20207;-89
2023/12/02 00:04:33;;;;;;;26.50;12.43;;;-0.60;99.90;;;;;;9661738;23;20252;-89
2023/12/02 00:08:19;;;;;;;28.37;13.43;;;-0.50;99.90;;;;;;9662327;23;20523;-89
2023/12/02 00:12:05;;;;;;;27.67;13.33;;;-0.50;99.90;;;;;;9689471;23;20149;-88
2023/12/02 00:15:50;;;;;;;27.03;13.53;;;-0.60;99.90;;;;;;9661275;23;20220;-88
2023/12/02 00:19:36;;;;;;;25.63;12.63;;;-0.60;99.90;;;;;;9689758;23;20150;-87
2023/12/02 00:23:22;;;;;;;26.90;13.67;;;-0.40;99.90;;;;;;9688903;23;20145;-88
2023/12/02 00:27:07;;;;;;;28.13;13.97;;;-0.60;99.90;;;;;;9661453;23;20220;-88
2023/12/02 00:30:53;;;;;;;28.97;14.20;;;-0.60;99.90;;;;;;9660839;23;20582;-89
2023/12/02 00:34:39;;;;;;;26.30;13.10;;;-0.60;99.90;;;;;;9687935;23;20609;-88
2023/12/02 00:38:24;;;;;;;24.70;12.07;;;-0.60;99.90;;;;;;9662843;23;20564;-88
2023/12/02 00:42:10;;;;;;;25.70;12.80;;;-0.60;99.90;;;;;;9689672;23;20237;-88
2023/12/02 00:45:56;;;;;;;26.07;13.00;;;-0.60;99.90;;;;;;9661088;23;20180;-89
2023/12/02 00:49:41;;;;;;;23.20;12.23;;;-0.60;99.90;;;;;;9662149;23;20252;-87
2023/12/02 00:53:27;;;;;;;24.63;11.30;;;-0.70;99.90;;;;;;9661945;23;20504;-89
2023/12/02 00:57:12;;;;;;;25.13;12.73;;;-0.70;99.90;;;;;;9687588;23;20188;-88
2023/12/02 01:00:58;;;;;;;24.33;11.83;;;-0.70;99.90;;;;;;9662038;23;20218;-88
2023/12/02 01:04:44;;;;;;;22.87;11.60;;;-0.70;99.90;;;;;;9660858;23;20467;-88
2023/12/02 01:08:29;;;;;;;27.47;12.27;;;-0.80;99.90;;;;;;9661846;23;20894;-88
2023/12/02 01:12:15;;;;;;;26.77;12.23;;;-0.70;99.90;;;;;;9662134;23;20157;-87
2023/12/02 01:16:00;;;;;;;24.83;12.00;;;-0.70;99.90;;;;;;9687112;23;20633;-88
2023/12/02 01:19:46;;;;;;;21.83;11.33;;;-0.80;99.90;;;;;;9661730;23;20153;-88
2023/12/02 01:23:32;;;;;;;24.30;11.20;;;-0.70;99.90;;;;;;9661827;23;20161;-88
2023/12/02 01:27:17;;;;;;;25.10;12.93;;;-0.70;99.90;;;;;;9662164;23;20284;-89
2023/12/02 01:31:03;;;;;;;21.97;11.63;;;-0.80;99.90;;;;;;9663518;23;20658;-89
2023/12/02 01:34:49;;;;;;;24.67;12.17;;;-0.80;99.90;;;;;;9663222;23;20733;-88
2023/12/02 01:38:34;;;;;;;22.97;11.40;;;-0.80;99.90;;;;;;9663613;23;20157;-89
2023/12/02 01:42:20;;;;;;;22.90;11.63;;;-0.80;99.90;;;;;;9663496;23;20162;-88
2023/12/02 01:46:06;;;;;;;22.07;11.17;;;-0.80;99.90;;;;;;9663477;23;20180;-90
2023/12/02 01:49:52;;;;;;;23.90;11.47;;;-0.80;99.90;;;;;;9663036;23;20585;-89
2023/12/02 01:53:39;;;;;;;23.77;11.03;;;-0.70;99.90;;;;;;9663227;23;20161;-89
2023/12/02 01:57:25;;;;;;;21.40;10.27;;;-0.80;99.90;;;;;;9664171;23;20224;-89
2023/12/02 02:01:11;;;;;;;25.27;11.83;;;-0.70;99.90;;;;;;9698480;22;20175;-93
2023/12/02 02:04:56;;;;;;;23.30;11.17;;;-0.80;99.90;;;;;;9709979;22;20173;-91
2023/12/02 02:08:42;;;;;;;22.70;11.33;;;-0.80;99.90;;;;;;9709090;22;20172;-89
2023/12/02 02:12:28;;;;;;;23.47;10.47;;;-0.80;99.90;;;;;;9667053;23;20161;-90
2023/12/02 02:16:14;;;;;;;21.30;11.27;;;-0.80;99.90;;;;;;9663946;23;20311;-89
2023/12/02 02:19:59;;;;;;;22.83;11.23;;;-0.70;99.90;;;;;;9689571;23;20288;-90
2023/12/02 02:23:45;;;;;;;25.30;11.43;;;-0.80;99.90;;;;;;9662916;23;20586;-89
2023/12/02 02:27:31;;;;;;;20.33;10.53;;;-0.80;99.90;;;;;;9662343;23;20216;-90
2023/12/02 02:31:17;;;;;;;20.53;10.77;;;-0.80;99.90;;;;;;9663117;23;20154;-89
2023/12/02 02:35:03;;;;;;;22.33;10.37;;;-0.80;99.90;;;;;;9662335;23;20625;-89
2023/12/02 02:38:48;;;;;;;19.73;10.97;;;-0.90;99.90;;;;;;9662458;23;20688;-90
2023/12/02 02:42:34;;;;;;;22.83;10.23;;;-0.70;99.90;;;;;;9662680;23;20212;-90
2023/12/02 02:46:20;;;;;;;20.00;10.60;;;-0.80;99.90;;;;;;9662137;23;20181;-89
2023/12/02 02:50:06;;;;;;;25.03;11.20;;;-0.80;99.90;;;;;;9662506;23;20158;-89
2023/12/02 02:53:52;;;;;;;26.03;12.27;;;-0.80;99.90;;;;;;9662471;23;20244;-89
2023/12/02 02:57:38;;;;;;;21.90;11.27;;;-0.90;99.90;;;;;;9662328;23;20239;-90
2023/12/02 03:01:23;;;;;;;23.53;11.73;;;-0.90;99.90;;;;;;9662382;23;20157;-89
2023/12/02 03:05:09;;;;;;;21.33;11.53;;;-0.90;99.90;;;;;;9662420;23;20583;-89
2023/12/02 03:08:55;;;;;;;23.60;11.90;;;-0.90;99.90;;;;;;9663149;23;20525;-89
2023/12/02 03:12:40;;;;;;;23.80;11.53;;;-0.90;99.90;;;;;;9662349;23;20161;-89
2023/12/02 03:16:26;;;;;;;25.73;12.80;;;-0.90;99.90;;;;;;9662024;23;20193;-90
2023/12/02 03:20:12;;;;;;;27.97;13.73;;;-0.90;99.90;;;;;;9662160;23;20495;-90
2023/12/02 03:23:57;;;;;;;26.47;12.37;;;-0.90;99.90;;;;;;9662325;23;20530;-90
2023/12/02 03:27:43;;;;;;;27.23;13.60;;;-0.90;99.90;;;;;;9662340;23;20809;-88
2023/12/02 03:31:29;;;;;;;27.37;12.93;;;-0.90;99.90;;;;;;9689745;23;20134;-89
2023/12/02 03:35:14;;;;;;;29.23;13.17;;;-0.90;99.90;;;;;;9662732;23;20192;-90
2023/12/02 03:39:00;;;;;;;29.50;13.97;;;-0.90;99.90;;;;;;9662270;23;20153;-89
2023/12/02 03:42:46;;;;;;;29.00;13.70;;;-1.00;99.90;;;;;;9661810;23;20479;-89
2023/12/02 03:46:37;;;;;;;29.13;14.27;;;-0.90;99.90;;;;;;9662083;23;20214;-89
2023/12/02 03:50:23;;;;;;;30.37;14.77;;;-0.90;99.90;;;;;;9662218;23;20153;-90
2023/12/02 03:54:08;;;;;;;27.40;13.43;;;-0.90;99.90;;;;;;9662044;23;20208;-89
2023/12/02 03:57:54;;;;;;;32.20;16.00;;;-0.90;99.90;;;;;;9664010;23;20556;-89
2023/12/02 04:01:41;;;;;;;28.00;14.07;;;-1.00;99.90;;;;;;9664945;23;20165;-90
2023/12/02 04:05:26;;;;;;;29.73;14.17;;;-0.90;99.90;;;;;;9664594;23;20566;-90
2023/12/02 04:09:12;;;;;;;31.53;14.83;;;-1.00;99.90;;;;;;9664863;23;20189;-90
2023/12/02 04:12:57;;;;;;;29.87;14.80;;;-0.90;99.90;;;;;;9691578;23;20157;-90
2023/12/02 04:16:43;;;;;;;30.87;14.53;;;-1.00;99.90;;;;;;9664482;23;20189;-89
2023/12/02 04:20:29;;;;;;;29.17;15.03;;;-1.00;99.90;;;;;;9664459;23;20238;-89
2023/12/02 04:24:14;;;;;;;33.67;16.13;;;-1.00;99.90;;;;;;9664448;23;20563;-90
2023/12/02 04:28:00;;;;;;;31.37;15.10;;;-1.00;99.90;;;;;;9664601;23;20637;-89
2023/12/02 04:31:46;;;;;;;32.40;15.60;;;-1.00;99.90;;;;;;9664264;23;20161;-89
2023/12/02 04:35:34;;;;;;;27.83;13.23;;;-1.00;99.90;;;;;;9664540;23;20278;-89
2023/12/02 04:39:21;;;;;;;27.03;12.17;;;-1.00;99.90;;;;;;9664250;23;20150;-88
2023/12/02 04:43:06;;;;;;;27.00;13.17;;;-1.00;99.90;;;;;;9664170;23;20157;-89
2023/12/02 04:46:52;;;;;;;21.50;11.47;;;-1.10;99.90;;;;;;9664177;23;20203;-89
2023/12/02 04:50:38;;;;;;;24.73;12.00;;;-1.00;99.90;;;;;;9691158;23;20647;-89
2023/12/02 04:54:23;;;;;;;23.67;11.60;;;-1.10;99.90;;;;;;9663898;23;20180;-90
2023/12/02 04:58:09;;;;;;;20.70;10.20;;;-1.10;99.90;;;;;;9664118;23;20528;-89
2023/12/02 05:01:55;;;;;;;21.53;11.23;;;-1.10;99.90;;;;;;9663854;23;20495;-89
2023/12/02 05:05:40;;;;;;;18.57;10.50;;;-1.20;99.90;;;;;;9663891;23;20621;-89
2023/12/02 05:09:26;;;;;;;20.20;9.73;;;-1.20;99.90;;;;;;9663676;23;20608;-89
2023/12/02 05:13:12;;;;;;;22.53;10.50;;;-1.10;99.90;;;;;;9690709;23;20156;-89
2023/12/02 05:16:57;;;;;;;20.17;10.83;;;-1.10;99.90;;;;;;9663524;23;20189;-89
2023/12/02 05:20:43;;;;;;;27.67;14.00;;;-1.10;99.90;;;;;;9663859;23;20615;-90
2023/12/02 05:24:29;;;;;;;23.80;13.30;;;-1.10;99.90;;;;;;9663120;23;20172;-90
2023/12/02 05:28:14;;;;;;;23.90;13.13;;;-1.20;99.90;;;;;;9663392;23;20196;-89
2023/12/02 05:32:00;;;;;;;24.43;12.83;;;-1.20;99.90;;;;;;9663127;23;20164;-89
2023/12/02 05:35:45;;;;;;;26.43;13.47;;;-1.20;99.90;;;;;;9689899;23;20515;-89
2023/12/02 05:39:31;;;;;;;23.63;12.60;;;-1.20;99.90;;;;;;9690188;23;20540;-91
2023/12/02 05:43:17;;;;;;;25.37;12.97;;;-1.20;99.90;;;;;;9663512;23;20173;-89
2023/12/02 05:47:02;;;;;;;23.70;12.90;;;-1.20;99.90;;;;;;9663243;23;20191;-89
2023/12/02 05:50:48;;;;;;;26.30;12.77;;;-1.20;99.90;;;;;;9663460;23;20248;-89
2023/12/02 05:54:34;;;;;;;24.53;11.00;;;-1.20;99.90;;;;;;9663199;23;20622;-90
2023/12/02 05:58:20;;;;;;;27.83;12.23;;;-1.30;99.90;;;;;;9662890;23;20648;-90
2023/12/02 06:02:12;;;;;;;26.23;12.30;;;-1.30;99.90;;;;;;9690034;23;20498;-89
2023/12/02 06:05:57;;;;;;;25.23;12.93;;;-1.30;99.90;;;;;;9663098;23;20181;-89
2023/12/02 06:09:43;;;;;;;35.90;17.07;;;-1.30;99.90;;;;;;9689871;23;20157;-89
2023/12/02 06:13:29;;;;;;;31.90;15.60;;;-1.40;99.90;;;;;;9662966;23;20161;-90
2023/12/02 06:17:15;;;;;;;38.07;17.60;;;-1.40;99.90;;;;;;9662509;23;20192;-89
2023/12/02 06:21:01;;;;;;;28.93;14.50;;;-1.30;99.90;;;;;;9662486;23;20160;-90
2023/12/02 06:24:47;;;;;;;30.43;15.07;;;-1.40;99.90;;;;;;9662658;23;20168;-89
2023/12/02 06:28:32;;;;;;;32.17;15.73;;;-1.40;99.90;;;;;;9663653;23;20180;-89
2023/12/02 06:32:18;;;;;;;36.63;17.73;;;-1.40;99.90;;;;;;9662701;23;20162;-88
2023/12/02 06:36:04;;;;;;;41.93;19.50;;;-1.40;99.90;;;;;;9662409;23;20209;-89
2023/12/02 06:39:50;;;;;;;39.87;19.57;;;-1.40;99.90;;;;;;9662653;23;20158;-89
2023/12/02 06:43:36;;;;;;;44.47;20.30;;;-1.40;99.90;;;;;;9662160;23;20157;-88
2023/12/02 06:47:21;;;;;;;38.53;17.67;;;-1.40;99.90;;;;;;9662450;23;20181;-89
2023/12/02 06:51:34;;;;;;;38.43;18.77;;;-1.30;99.90;;;;;;9662292;23;20236;-89
2023/12/02 06:55:22;;;;;;;60.53;27.67;;;-1.40;99.90;;;;;;9662038;23;20276;-89
2023/12/02 06:59:08;;;;;;;29.17;15.63;;;-1.40;99.90;;;;;;9662383;23;20608;-89
2023/12/02 07:02:54;;;;;;;35.10;16.93;;;-1.40;99.90;;;;;;9662421;23;20184;-89
2023/12/02 07:06:40;;;;;;;27.57;14.07;;;-1.40;99.90;;;;;;9662175;23;20185;-90
2023/12/02 07:10:26;;;;;;;28.13;13.73;;;-1.40;99.90;;;;;;9662382;23;20157;-90
2023/12/02 07:14:11;;;;;;;33.47;12.27;;;-1.40;99.90;;;;;;9688911;23;20177;-89
2023/12/02 07:17:57;;;;;;;28.37;12.83;;;-1.40;99.90;;;;;;9662792;23;20204;-89
2023/12/02 07:21:43;;;;;;;28.87;14.00;;;-1.40;99.90;;;;;;9662303;23;20189;-89
2023/12/02 07:25:28;;;;;;;27.10;12.37;;;-1.40;99.90;;;;;;9662635;23;20523;-89
2023/12/02 07:29:14;;;;;;;30.43;13.50;;;-1.20;99.90;;;;;;9663041;23;20601;-89
2023/12/02 07:33:00;;;;;;;33.40;14.07;;;-1.30;99.90;;;;;;9697927;22;20165;-91
2023/12/02 07:36:45;;;;;;;28.20;12.57;;;-1.40;99.90;;;;;;9737826;22;20201;-92
2023/12/02 07:40:31;;;;;;;29.83;13.50;;;-1.30;99.90;;;;;;9708407;22;20165;-88
2023/12/02 07:44:17;;;;;;;30.80;13.00;;;-1.50;99.90;;;;;;9668736;23;20161;-89
2023/12/02 07:48:04;;;;;;;28.10;13.13;;;-1.50;99.90;;;;;;9665779;23;20185;-89
2023/12/02 07:51:50;;;;;;;28.70;12.53;;;-1.50;99.90;;;;;;9664968;23;20164;-88
2023/12/02 07:55:35;;;;;;;30.13;13.13;;;-1.50;99.90;;;;;;9664836;23;20197;-89
2023/12/02 07:59:21;;;;;;;28.10;12.63;;;-1.50;99.90;;;;;;9664953;23;20158;-88
2023/12/02 08:03:07;;;;;;;36.60;16.57;;;-1.50;99.90;;;;;;9664764;23;20217;-89
2023/12/02 08:06:52;;;;;;;35.30;15.20;;;-1.50;99.90;;;;;;9664537;23;20181;-89
2023/12/02 08:10:38;;;;;;;26.53;12.13;;;-1.50;99.90;;;;;;9691590;23;20663;-88
2023/12/02 08:14:23;;;;;;;30.93;12.93;;;-1.50;99.90;;;;;;9664424;23;20643;-89
2023/12/02 08:18:09;;;;;;;27.40;12.27;;;-1.50;99.90;;;;;;9665023;23;20177;-89
2023/12/02 08:21:55;;;;;;;26.73;12.40;;;-1.60;99.90;;;;;;9664333;23;20158;-88
2023/12/02 08:25:40;;;;;;;29.53;13.73;;;-1.60;99.90;;;;;;9664269;23;20706;-87
2023/12/02 08:29:26;;;;;;;28.57;12.27;;;-1.60;99.90;;;;;;9664532;23;20161;-89
2023/12/02 08:33:11;;;;;;;31.50;12.53;;;-1.60;99.90;;;;;;9664438;23;20164;-88
2023/12/02 08:36:57;;;;;;;28.27;12.20;;;-1.60;99.90;;;;;;9664089;23;20192;-88
2023/12/02 08:40:45;;;;;;;31.13;12.73;;;-1.60;99.90;;;;;;9664377;23;20171;-88
2023/12/02 08:44:30;;;;;;;29.03;12.20;;;-1.60;99.90;;;;;;9663676;23;20489;-89
2023/12/02 08:48:16;;;;;;;29.00;12.83;;;-1.60;99.90;;;;;;9690885;23;20199;-90
2023/12/02 08:52:03;;;;;;;23.57;11.07;;;-1.60;99.90;;;;;;9663967;23;20169;-89
2023/12/02 08:55:49;;;;;;;25.30;11.70;;;-1.60;99.90;;;;;;9663524;23;20196;-89
2023/12/02 08:59:35;;;;;;;27.07;12.03;;;-1.80;99.90;;;;;;9663796;23;20153;-88
2023/12/02 09:03:21;;;;;;;34.37;14.77;;;-1.90;99.90;;;;;;9663783;23;20184;-90
2023/12/02 09:07:06;;;;;;;40.87;17.77;;;-1.90;99.90;;;;;;9663637;23;20179;-89
2023/12/02 09:10:52;;;;;;;44.93;20.10;;;-1.90;99.90;;;;;;9663322;23;20164;-89
2023/12/02 09:14:38;;;;;;;35.17;16.50;;;-1.90;99.90;;;;;;9663590;23;20681;-88
2023/12/02 09:18:32;;;;;;;29.30;11.97;;;-1.90;99.90;;;;;;9690566;23;20152;-89
2023/12/02 09:22:45;;;;;;;29.37;12.43;;;-2.00;99.90;;;;;;9663605;23;20145;-89
2023/12/02 09:26:41;;;;;;;30.13;13.67;;;-2.00;99.90;;;;;;9663192;23;20698;-89
2023/12/02 09:30:27;;;;;;;31.10;12.20;;;-1.90;99.90;;;;;;9663490;23;20147;-89
2023/12/02 09:34:58;;;;;;;31.87;13.23;;;-1.80;99.90;;;;;;9689762;23;20176;-89
2023/12/02 09:38:43;;;;;;;25.07;11.33;;;-1.70;99.90;;;;;;9430871;23;20167;-88
2023/12/02 09:42:29;;;;;;;29.73;12.10;;;-1.40;99.90;;;;;;9430477;23;20160;-89
2023/12/02 09:46:15;;;;;;;28.33;13.10;;;-1.10;99.90;;;;;;9428165;23;20181;-89
2023/12/02 09:50:11;;;;;;;26.80;13.27;;;-0.90;99.90;;;;;;9429037;23;20164;-88
2023/12/02 09:54:29;;;;;;;25.13;11.73;;;-0.80;99.90;;;;;;9454167;23;20161;-89
2023/12/02 09:58:26;;;;;;;25.87;12.07;;;-0.70;99.90;;;;;;9453192;23;20445;-89
2023/12/02 10:02:42;;;;;;;27.27;11.83;;;-0.60;99.90;;;;;;9428991;23;20164;-89
2023/12/02 10:06:44;;;;;;;29.90;12.87;;;-0.60;99.90;;;;;;9428623;23;20638;-89
2023/12/02 10:10:43;;;;;;;32.33;14.03;;;-0.50;99.90;;;;;;9458837;23;20167;-89
2023/12/02 10:14:32;;;;;;;31.70;13.27;;;-0.50;99.90;;;;;;9661643;23;20495;-89
2023/12/02 10:18:22;;;;;;;32.00;13.53;;;-0.50;99.90;;;;;;9661531;23;20177;-89
2023/12/02 10:22:11;;;;;;;29.83;13.20;;;-0.50;99.90;;;;;;9661676;23;20279;-89
2023/12/02 10:26:05;;;;;;;35.47;15.97;;;-0.50;99.90;;;;;;9688791;23;20266;-90
2023/12/02 10:30:03;;;;;;;32.83;13.30;;;-0.50;99.90;;;;;;9662702;23;20157;-89
2023/12/02 10:33:58;;;;;;;35.63;14.00;;;-0.50;99.90;;;;;;9661123;23;20152;-89
2023/12/02 10:37:43;;;;;;;28.63;12.23;;;-0.50;99.90;;;;;;9660652;23;20780;-89
2023/12/02 10:41:48;;;;;;;38.07;15.47;;;-0.60;99.90;;;;;;9661075;23;20617;-89
2023/12/02 10:45:38;;;;;;;33.90;13.90;;;-0.60;99.90;;;;;;9662922;23;20176;-89
2023/12/02 10:49:24;;;;;;;28.30;12.57;;;-0.60;99.90;;;;;;9661986;23;20185;-89
2023/12/02 10:53:12;;;;;;;29.63;12.37;;;-0.60;99.90;;;;;;9661125;23;20157;-89
2023/12/02 10:57:06;;;;;;;26.43;12.00;;;-0.60;99.90;;;;;;9660380;23;20188;-89
2023/12/02 11:00:59;;;;;;;28.40;12.00;;;-0.60;99.90;;;;;;9661174;23;20533;-89
2023/12/02 11:04:49;;;;;;;31.07;13.53;;;-0.60;99.90;;;;;;9660390;23;20176;-89
2023/12/02 11:08:48;;;;;;;31.27;12.63;;;-0.60;99.90;;;;;;9692699;23;20183;-89
2023/12/02 11:12:46;;;;;;;35.97;13.67;;;-0.60;99.90;;;;;;9693661;23;20159;-89
2023/12/02 11:16:52;;;;;;;30.13;14.37;;;-0.60;99.90;;;;;;9666273;23;20200;-88
2023/12/02 11:20:55;;;;;;;30.10;12.73;;;-0.60;99.90;;;;;;9662296;23;20187;-89
2023/12/02 11:24:59;;;;;;;28.87;11.70;;;-0.60;99.90;;;;;;9667108;23;20274;-90
2023/12/02 11:29:05;;;;;;;23.30;10.97;;;-0.60;99.90;;;;;;9666028;23;20172;-90
2023/12/02 11:33:04;;;;;;;31.80;14.53;;;-0.60;99.90;;;;;;9665114;23;20203;-90
2023/12/02 11:37:20;;;;;;;25.20;11.33;;;-0.60;99.90;;;;;;9665630;23;20193;-89
2023/12/02 11:41:13;;;;;;;29.73;13.90;;;-0.60;99.90;;;;;;9666878;23;20157;-88
2023/12/02 11:45:09;;;;;;;34.20;14.83;;;-0.60;99.90;;;;;;9664093;23;20184;-90
2023/12/02 11:48:58;;;;;;;43.63;19.80;;;-0.60;99.90;;;;;;9666879;23;20157;-89
2023/12/02 11:52:44;;;;;;;44.00;19.27;;;-0.60;99.90;;;;;;9666529;23;20232;-90
2023/12/02 11:56:30;;;;;;;35.17;17.20;;;-0.60;99.90;;;;;;9665677;23;20219;-89
2023/12/02 12:00:50;;;;;;;41.37;18.93;;;-0.70;99.90;;;;;;9666243;23;20228;-90
2023/12/02 12:05:06;;;;;;;41.87;17.83;;;-0.70;99.90;;;;;;9559661;23;20622;-90
2023/12/02 12:09:07;;;;;;;42.40;17.30;;;-0.70;99.90;;;;;;9667002;23;20238;-90
2023/12/02 12:12:56;;;;;;;43.17;17.63;;;-0.70;99.90;;;;;;9666535;23;20227;-90
2023/12/02 12:16:42;;;;;;;42.30;16.13;;;-0.80;99.90;;;;;;9666302;23;20197;-89
2023/12/02 12:20:29;;;;;;;41.67;18.20;;;-0.80;99.90;;;;;;9692545;23;20235;-90
2023/12/02 12:24:14;;;;;;;42.23;18.67;;;-0.80;99.90;;;;;;9691555;23;20145;-90
2023/12/02 12:28:02;;;;;;;36.77;16.80;;;-0.80;99.90;;;;;;9664804;23;20283;-90
2023/12/02 12:31:48;;;;;;;41.70;17.27;;;-0.80;99.90;;;;;;9664723;23;20164;-90
2023/12/02 12:35:33;;;;;;;42.60;18.37;;;-1.10;99.90;;;;;;9664264;23;20275;-90
2023/12/02 12:39:47;;;;;;;39.67;16.53;;;-1.10;99.90;;;;;;9663169;23;20157;-90
2023/12/02 12:43:36;;;;;;;39.17;16.67;;;-1.10;99.90;;;;;;9664211;23;20525;-90
2023/12/02 12:47:25;;;;;;;53.03;23.57;;;-1.20;99.90;;;;;;9690259;23;20208;-89
2023/12/02 12:51:15;;;;;;;48.67;22.73;;;-1.20;99.90;;;;;;9690294;23;20142;-91
2023/12/02 12:55:03;;;;;;;42.40;18.07;;;-1.20;99.90;;;;;;9665517;23;20220;-90
2023/12/02 12:58:59;;;;;;;37.63;16.27;;;-1.30;99.90;;;;;;9698084;22;20174;-90
2023/12/02 13:02:57;;;;;;;36.53;16.33;;;-1.30;99.90;;;;;;9711314;22;20149;-90
2023/12/02 13:06:43;;;;;;;32.47;15.03;;;-1.30;99.90;;;;;;9704469;22;20635;-89
2023/12/02 13:10:34;;;;;;;32.17;14.37;;;-1.20;99.90;;;;;;9666755;23;20157;-89
2023/12/02 13:14:31;;;;;;;38.83;17.00;;;-1.20;99.90;;;;;;9664294;23;20233;-89
2023/12/02 13:18:21;;;;;;;29.80;14.70;;;-1.20;99.90;;;;;;9663494;23;20177;-89
2023/12/02 13:22:08;;;;;;;29.33;14.33;;;-1.20;99.90;;;;;;9663851;23;20585;-90
2023/12/02 13:26:02;;;;;;;30.57;13.57;;;-1.20;99.90;;;;;;9663578;23;20200;-89
2023/12/02 13:29:53;;;;;;;34.30;15.13;;;-1.20;99.90;;;;;;9662107;23;20157;-89
2023/12/02 13:34:03;;;;;;;28.50;13.00;;;-1.20;99.90;;;;;;9661325;23;20156;-89
2023/12/02 13:38:01;;;;;;;34.33;13.30;;;-1.20;99.90;;;;;;9689027;23;20192;-90
2023/12/02 13:41:49;;;;;;;30.40;13.57;;;-1.30;99.90;;;;;;9662704;23;20157;-89
2023/12/02 13:45:40;;;;;;;30.70;14.27;;;-1.20;99.90;;;;;;9660927;23;20611;-89
2023/12/02 13:49:37;;;;;;;30.27;13.37;;;-1.30;99.90;;;;;;9662394;23;20164;-89
2023/12/02 13:53:45;;;;;;;32.97;13.17;;;-1.20;99.90;;;;;;9662283;23;20171;-90
2023/12/02 13:58:03;;;;;;;32.13;14.80;;;-1.20;99.90;;;;;;9661494;23;20215;-89
2023/12/02 14:02:20;;;;;;;29.40;12.70;;;-1.30;99.90;;;;;;9662744;23;20180;-89
2023/12/02 14:06:17;;;;;;;30.93;13.47;;;-1.40;99.90;;;;;;9661056;23;20677;-88
2023/12/02 14:10:06;;;;;;;27.20;11.70;;;-1.30;99.90;;;;;;9662375;23;20156;-90
2023/12/02 14:14:27;;;;;;;26.17;11.90;;;-1.40;99.90;;;;;;9663715;23;20748;-90
2023/12/02 14:18:43;;;;;;;24.13;11.47;;;-1.50;99.90;;;;;;9655954;23;20189;-90
2023/12/02 14:22:35;;;;;;;30.13;13.23;;;-1.60;99.90;;;;;;9662573;23;20159;-90
2023/12/02 14:26:56;;;;;;;23.40;11.83;;;-1.60;99.90;;;;;;9660332;23;20566;-91
2023/12/02 14:31:07;;;;;;;31.93;13.27;;;-1.60;99.90;;;;;;9659795;23;20177;-90
2023/12/02 14:35:14;;;;;;;26.87;13.03;;;-1.60;99.90;;;;;;9659213;23;20200;-90
2023/12/02 14:39:40;;;;;;;30.90;13.80;;;-1.60;99.90;;;;;;9660762;23;20268;-89
2023/12/02 14:43:44;;;;;;;25.23;12.73;;;-1.80;99.90;;;;;;9660282;23;20158;-89
2023/12/02 14:47:41;;;;;;;27.87;12.40;;;-1.80;99.90;;;;;;9661011;23;20184;-89
2023/12/02 14:51:32;;;;;;;28.97;14.40;;;-1.80;99.90;;;;;;9661096;23;20191;-90
2023/12/02 14:55:19;;;;;;;29.07;13.60;;;-1.70;99.90;;;;;;9659885;23;20200;-89
2023/12/02 14:59:07;;;;;;;25.93;12.10;;;-1.60;99.90;;;;;;9660428;23;20161;-87
2023/12/02 15:02:53;;;;;;;26.23;11.00;;;-1.60;99.90;;;;;;9686862;23;20573;-89
2023/12/02 15:06:40;;;;;;;23.20;11.63;;;-1.60;99.90;;;;;;9659512;23;20181;-89
2023/12/02 15:10:27;;;;;;;33.40;18.27;;;-1.70;99.90;;;;;;9659421;23;20438;-89
2023/12/02 15:14:15;;;;;;;26.80;10.93;;;-1.70;99.90;;;;;;9659572;23;20499;-89
2023/12/02 15:18:02;;;;;;;21.43;10.33;;;-1.60;99.90;;;;;;9660374;23;20234;-90
2023/12/02 15:22:16;;;;;;;19.07;9.33;;;-1.70;99.90;;;;;;9660175;23;20158;-90
2023/12/02 15:26:03;;;;;;;18.33;8.53;;;-1.90;99.90;;;;;;9659455;23;20592;-89
2023/12/02 15:29:48;;;;;;;17.40;9.13;;;-1.80;99.90;;;;;;9660510;23;20173;-90
2023/12/02 15:33:41;;;;;;;18.60;9.70;;;-1.80;99.90;;;;;;9660476;23;20593;-88
2023/12/02 15:37:26;;;;;;;18.23;8.43;;;-1.80;99.90;;;;;;9659671;23;20202;-90
2023/12/02 15:41:12;;;;;;;18.37;8.93;;;-1.80;99.90;;;;;;9659788;23;20161;-91
2023/12/02 15:44:58;;;;;;;20.87;8.40;;;-1.80;99.90;;;;;;9660148;23;20622;-89
2023/12/02 15:48:43;;;;;;;16.20;8.00;;;-1.90;99.90;;;;;;9660310;23;20620;-90
2023/12/02 15:52:29;;;;;;;19.40;9.13;;;-1.80;99.90;;;;;;9659679;23;20168;-90
2023/12/02 15:56:17;;;;;;;19.80;9.37;;;-1.80;99.90;;;;;;9659892;23;20526;-90
2023/12/02 16:00:04;;;;;;;22.00;10.73;;;-1.90;99.90;;;;;;9662788;23;20500;-89
2023/12/02 16:03:49;;;;;;;23.93;10.63;;;-2.00;99.90;;;;;;9661896;23;20157;-90
2023/12/02 16:07:36;;;;;;;20.07;9.40;;;-2.00;99.90;;;;;;9661252;23;20184;-90
2023/12/02 16:11:22;;;;;;;18.17;8.43;;;-1.90;99.90;;;;;;9672018;23;20191;-90
2023/12/02 16:15:08;;;;;;;16.20;8.13;;;-2.00;99.90;;;;;;9676615;23;20192;-90
2023/12/02 16:18:55;;;;;;;25.53;10.57;;;-2.00;99.90;;;;;;9697838;23;20180;-90
2023/12/02 16:22:41;;;;;;;22.37;10.40;;;-2.00;99.90;;;;;;9663862;23;20560;-91
2023/12/02 16:26:28;;;;;;;23.00;9.97;;;-2.00;99.90;;;;;;9661551;23;20620;-90
2023/12/02 16:30:21;;;;;;;24.93;10.37;;;-2.00;99.90;;;;;;9661889;23;20509;-90
2023/12/02 16:34:08;;;;;;;19.50;9.07;;;-2.00;99.90;;;;;;9661786;23;20675;-90
2023/12/02 16:37:55;;;;;;;16.33;8.47;;;-2.10;99.90;;;;;;9663031;23;20213;-90
2023/12/02 16:41:42;;;;;;;18.23;7.93;;;-2.20;99.90;;;;;;9662930;23;20153;-90
2023/12/02 16:45:28;;;;;;;23.63;11.23;;;-2.30;99.90;;;;;;9661669;23;20180;-90
2023/12/02 16:49:18;;;;;;;19.13;8.63;;;-2.30;99.90;;;;;;9663127;23;20615;-90
2023/12/02 16:53:03;;;;;;;18.17;8.60;;;-2.30;99.90;;;;;;9662544;23;20211;-90
2023/12/02 16:56:52;;;;;;;17.43;8.47;;;-2.20;99.90;;;;;;9660577;23;20189;-90
2023/12/02 17:00:44;;;;;;;21.10;9.40;;;-2.20;99.90;;;;;;9662230;23;20184;-90
2023/12/02 17:04:29;;;;;;;16.20;7.57;;;-2.10;99.90;;;;;;9659526;23;20161;-90
2023/12/02 17:08:27;;;;;;;17.67;8.67;;;-2.00;99.90;;;;;;9662818;23;20211;-89
2023/12/02 17:12:12;;;;;;;26.13;12.30;;;-1.90;99.90;;;;;;9662342;23;20600;-90
2023/12/02 17:15:58;;;;;;;26.40;12.43;;;-1.90;99.90;;;;;;9660857;23;20656;-90
2023/12/02 17:19:45;;;;;;;27.20;12.67;;;-1.90;99.90;;;;;;9662082;23;20210;-91
2023/12/02 17:23:32;;;;;;;20.43;10.23;;;-1.90;99.90;;;;;;9662773;23;20181;-89
2023/12/02 17:27:41;;;;;;;23.43;12.17;;;-1.90;99.90;;;;;;9659023;23;20513;-90
2023/12/02 17:31:26;;;;;;;20.00;10.30;;;-1.90;99.90;;;;;;9661830;23;20172;-90
2023/12/02 17:35:12;;;;;;;23.70;10.90;;;-2.00;99.90;;;;;;9660740;23;20204;-90
2023/12/02 17:38:58;;;;;;;21.17;10.03;;;-2.10;99.90;;;;;;9661905;23;20292;-90
2023/12/02 17:42:44;;;;;;;22.93;11.20;;;-2.10;99.90;;;;;;9661841;23;20160;-90
2023/12/02 17:46:30;;;;;;;22.03;10.23;;;-2.10;99.90;;;;;;9661066;23;20210;-90
2023/12/02 17:50:15;;;;;;;47.80;19.80;;;-2.10;99.90;;;;;;9662032;23;20164;-90
2023/12/02 17:54:01;;;;;;;26.63;11.13;;;-2.10;99.90;;;;;;9660428;23;20168;-90
2023/12/02 17:57:46;;;;;;;24.73;11.07;;;-2.10;99.90;;;;;;9661523;23;20307;-90
2023/12/02 18:01:32;;;;;;;27.03;11.50;;;-2.10;99.90;;;;;;9661977;23;20153;-90
2023/12/02 18:05:18;;;;;;;23.83;11.10;;;-2.20;99.90;;;;;;9660853;23;20188;-90
2023/12/02 18:09:04;;;;;;;24.83;11.83;;;-2.20;99.90;;;;;;9661718;23;20252;-91
2023/12/02 18:12:50;;;;;;;25.97;11.90;;;-2.20;99.90;;;;;;9661857;23;20553;-90
2023/12/02 18:16:35;;;;;;;38.13;15.97;;;-2.20;99.90;;;;;;9660516;23;20193;-89
2023/12/02 18:20:21;;;;;;;26.60;11.27;;;-2.20;99.90;;;;;;9661531;23;20157;-90
2023/12/02 18:24:08;;;;;;;19.47;9.83;;;-2.20;99.90;;;;;;9660662;23;20796;-91
2023/12/02 18:27:53;;;;;;;41.03;17.53;;;-2.20;99.90;;;;;;9661744;23;20217;-91
2023/12/02 18:31:39;;;;;;;30.70;13.80;;;-2.30;99.90;;;;;;9661253;23;20150;-90
2023/12/02 18:35:24;;;;;;;21.70;10.77;;;-2.20;99.90;;;;;;9660299;23;20215;-91
2023/12/02 18:39:10;;;;;;;27.23;12.27;;;-2.20;99.90;;;;;;9661686;23;20167;-91
2023/12/02 18:42:56;;;;;;;23.47;12.07;;;-2.30;99.90;;;;;;9661387;23;20163;-91
2023/12/02 18:46:41;;;;;;;27.43;12.40;;;-2.30;99.90;;;;;;9660143;23;20180;-89
2023/12/02 18:50:27;;;;;;;18.27;9.90;;;-2.20;99.90;;;;;;9689817;23;20157;-91
2023/12/02 18:54:13;;;;;;;24.93;12.20;;;-2.10;99.90;;;;;;9691630;22;20177;-87
2023/12/02 18:57:58;;;;;;;21.73;11.00;;;-2.10;99.90;;;;;;9709058;22;20181;-87
2023/12/02 19:01:44;;;;;;;19.73;9.63;;;-2.20;99.90;;;;;;9712121;22;20163;-88
2023/12/02 19:05:29;;;;;;;20.33;9.37;;;-2.10;99.90;;;;;;9671289;23;20192;-90
2023/12/02 19:09:15;;;;;;;18.13;9.50;;;-2.10;99.90;;;;;;9662143;23;20157;-90
2023/12/02 19:13:01;;;;;;;17.17;9.37;;;-2.20;99.90;;;;;;9660979;23;20164;-90
2023/12/02 19:16:48;;;;;;;19.40;10.00;;;-2.30;99.90;;;;;;9660088;23;20191;-89
2023/12/02 19:20:34;;;;;;;22.73;11.43;;;-2.30;99.90;;;;;;9660645;23;20768;-91
2023/12/02 19:24:19;;;;;;;19.20;10.53;;;-2.50;99.90;;;;;;9659998;23;20272;-90